sensor_id;sensor_type;location;lat;lon;timestamp;temperature;humidity
47174;DHT22;36730;49.036;9.094;2023-09-19T00:01:28;26.60;77.30
47174;DHT22;36730;49.036;9.094;2023-09-19T00:03:56;26.70;77.20
47174;DHT22;36730;49.036;9.094;2023-09-19T00:06:22;26.70;77.10
47174;DHT22;36730;49.036;9.094;2023-09-19T00:08:51;26.70;77.00
47174;DHT22;36730;49.036;9.094;2023-09-19T00:11:17;26.70;77.30
47174;DHT22;36730;49.036;9.094;2023-09-19T00:13:43;26.60;77.30
47174;DHT22;36730;49.036;9.094;2023-09-19T00:16:09;26.70;77.20
47174;DHT22;36730;49.036;9.094;2023-09-19T00:18:36;26.70;77.10
47174;DHT22;36730;49.036;9.094;2023-09-19T00:21:02;26.70;76.80
47174;DHT22;36730;49.036;9.094;2023-09-19T00:23:30;26.70;77.10
47174;DHT22;36730;49.036;9.094;2023-09-19T00:25:59;26.70;76.80
47174;DHT22;36730;49.036;9.094;2023-09-19T00:28:29;26.70;76.70
47174;DHT22;36730;49.036;9.094;2023-09-19T00:30:55;26.70;76.90
47174;DHT22;36730;49.036;9.094;2023-09-19T00:33:21;26.70;76.90
47174;DHT22;36730;49.036;9.094;2023-09-19T00:38:12;26.60;76.80
47174;DHT22;36730;49.036;9.094;2023-09-19T00:40:45;26.60;76.70
47174;DHT22;36730;49.036;9.094;2023-09-19T00:43:11;26.60;76.70
47174;DHT22;36730;49.036;9.094;2023-09-19T00:45:36;26.60;76.90
47174;DHT22;36730;49.036;9.094;2023-09-19T00:48:04;26.60;76.80
47174;DHT22;36730;49.036;9.094;2023-09-19T00:50:29;26.60;77.00
47174;DHT22;36730;49.036;9.094;2023-09-19T00:52:57;26.60;76.90
47174;DHT22;36730;49.036;9.094;2023-09-19T00:55:24;26.70;76.70
47174;DHT22;36730;49.036;9.094;2023-09-19T00:57:49;26.60;77.20
47174;DHT22;36730;49.036;9.094;2023-09-19T01:00:15;26.60;76.60
47174;DHT22;36730;49.036;9.094;2023-09-19T01:02:44;26.60;76.80
47174;DHT22;36730;49.036;9.094;2023-09-19T01:05:10;26.60;76.60
47174;DHT22;36730;49.036;9.094;2023-09-19T01:07:36;26.60;76.80
47174;DHT22;36730;49.036;9.094;2023-09-19T01:10:04;26.60;76.90
47174;DHT22;36730;49.036;9.094;2023-09-19T01:12:47;26.60;76.60
47174;DHT22;36730;49.036;9.094;2023-09-19T01:15:38;26.60;76.60
47174;DHT22;36730;49.036;9.094;2023-09-19T01:21:14;26.60;76.70
47174;DHT22;36730;49.036;9.094;2023-09-19T01:24:00;26.60;76.60
47174;DHT22;36730;49.036;9.094;2023-09-19T01:26:31;26.50;76.70
47174;DHT22;36730;49.036;9.094;2023-09-19T01:29:23;26.60;76.50
47174;DHT22;36730;49.036;9.094;2023-09-19T01:31:57;26.60;76.80
47174;DHT22;36730;49.036;9.094;2023-09-19T01:34:23;26.60;76.60
47174;DHT22;36730;49.036;9.094;2023-09-19T01:36:48;26.60;76.50
47174;DHT22;36730;49.036;9.094;2023-09-19T01:39:13;26.60;76.50
47174;DHT22;36730;49.036;9.094;2023-09-19T01:44:44;26.60;76.70
47174;DHT22;36730;49.036;9.094;2023-09-19T01:47:23;26.60;76.50
47174;DHT22;36730;49.036;9.094;2023-09-19T01:49:55;26.60;76.40
47174;DHT22;36730;49.036;9.094;2023-09-19T01:52:22;26.50;76.40
47174;DHT22;36730;49.036;9.094;2023-09-19T01:54:51;26.60;76.60
47174;DHT22;36730;49.036;9.094;2023-09-19T01:57:22;26.50;76.40
47174;DHT22;36730;49.036;9.094;2023-09-19T02:00:06;26.50;76.40
47174;DHT22;36730;49.036;9.094;2023-09-19T02:02:36;26.50;76.40
47174;DHT22;36730;49.036;9.094;2023-09-19T02:05:02;26.50;76.40
47174;DHT22;36730;49.036;9.094;2023-09-19T02:07:29;26.50;76.80
47174;DHT22;36730;49.036;9.094;2023-09-19T02:09:57;26.50;76.40
47174;DHT22;36730;49.036;9.094;2023-09-19T02:12:24;26.50;76.30
47174;DHT22;36730;49.036;9.094;2023-09-19T02:14:49;26.50;76.40
47174;DHT22;36730;49.036;9.094;2023-09-19T02:17:15;26.50;76.30
47174;DHT22;36730;49.036;9.094;2023-09-19T02:19:41;26.50;76.20
47174;DHT22;36730;49.036;9.094;2023-09-19T02:22:06;26.50;76.20
47174;DHT22;36730;49.036;9.094;2023-09-19T02:24:33;26.50;76.20
47174;DHT22;36730;49.036;9.094;2023-09-19T02:26:58;26.50;76.20
47174;DHT22;36730;49.036;9.094;2023-09-19T02:29:27;26.50;76.30
47174;DHT22;36730;49.036;9.094;2023-09-19T02:31:54;26.50;76.20
47174;DHT22;36730;49.036;9.094;2023-09-19T02:34:21;26.50;76.20
47174;DHT22;36730;49.036;9.094;2023-09-19T02:36:47;26.50;75.90
47174;DHT22;36730;49.036;9.094;2023-09-19T02:39:12;26.50;76.10
47174;DHT22;36730;49.036;9.094;2023-09-19T02:41:38;26.40;76.10
47174;DHT22;36730;49.036;9.094;2023-09-19T02:44:03;26.40;76.20
47174;DHT22;36730;49.036;9.094;2023-09-19T02:46:33;26.50;76.20
47174;DHT22;36730;49.036;9.094;2023-09-19T02:48:58;26.50;76.40
47174;DHT22;36730;49.036;9.094;2023-09-19T02:51:24;26.40;76.20
47174;DHT22;36730;49.036;9.094;2023-09-19T02:53:50;26.50;76.20
47174;DHT22;36730;49.036;9.094;2023-09-19T02:56:17;26.50;76.10
47174;DHT22;36730;49.036;9.094;2023-09-19T02:58:43;26.50;76.00
47174;DHT22;36730;49.036;9.094;2023-09-19T03:01:09;26.40;76.00
47174;DHT22;36730;49.036;9.094;2023-09-19T03:03:36;26.50;74.60
47174;DHT22;36730;49.036;9.094;2023-09-19T03:06:05;26.30;74.00
47174;DHT22;36730;49.036;9.094;2023-09-19T03:08:31;26.20;74.10
47174;DHT22;36730;49.036;9.094;2023-09-19T03:10:56;26.10;74.20
47174;DHT22;36730;49.036;9.094;2023-09-19T03:13:22;26.00;73.90
47174;DHT22;36730;49.036;9.094;2023-09-19T03:15:47;25.90;75.10
47174;DHT22;36730;49.036;9.094;2023-09-19T03:18:15;25.70;75.00
47174;DHT22;36730;49.036;9.094;2023-09-19T03:20:41;25.60;75.20
47174;DHT22;36730;49.036;9.094;2023-09-19T03:23:06;25.40;75.50
47174;DHT22;36730;49.036;9.094;2023-09-19T03:25:34;25.40;75.90
47174;DHT22;36730;49.036;9.094;2023-09-19T03:28:00;25.30;76.80
47174;DHT22;36730;49.036;9.094;2023-09-19T03:30:26;25.30;76.30
47174;DHT22;36730;49.036;9.094;2023-09-19T03:32:52;25.30;76.40
47174;DHT22;36730;49.036;9.094;2023-09-19T03:35:17;25.20;76.80
47174;DHT22;36730;49.036;9.094;2023-09-19T03:37:43;25.10;76.90
47174;DHT22;36730;49.036;9.094;2023-09-19T03:40:09;25.10;76.80
47174;DHT22;36730;49.036;9.094;2023-09-19T03:42:39;25.00;76.40
47174;DHT22;36730;49.036;9.094;2023-09-19T03:45:05;24.90;77.10
47174;DHT22;36730;49.036;9.094;2023-09-19T03:47:32;24.80;77.70
47174;DHT22;36730;49.036;9.094;2023-09-19T03:49:57;24.80;77.30
47174;DHT22;36730;49.036;9.094;2023-09-19T03:52:23;24.80;78.40
47174;DHT22;36730;49.036;9.094;2023-09-19T03:54:50;24.70;78.10
47174;DHT22;36730;49.036;9.094;2023-09-19T03:57:15;24.60;77.90
47174;DHT22;36730;49.036;9.094;2023-09-19T03:59:45;24.50;78.50
47174;DHT22;36730;49.036;9.094;2023-09-19T04:02:11;24.50;79.10
47174;DHT22;36730;49.036;9.094;2023-09-19T04:04:50;24.50;79.40
47174;DHT22;36730;49.036;9.094;2023-09-19T04:07:16;24.40;79.90
47174;DHT22;36730;49.036;9.094;2023-09-19T04:09:41;24.40;79.90
47174;DHT22;36730;49.036;9.094;2023-09-19T04:12:07;24.40;79.90
47174;DHT22;36730;49.036;9.094;2023-09-19T04:14:34;24.40;80.10
47174;DHT22;36730;49.036;9.094;2023-09-19T04:16:59;24.40;80.30
47174;DHT22;36730;49.036;9.094;2023-09-19T04:19:26;24.40;80.30
47174;DHT22;36730;49.036;9.094;2023-09-19T04:21:51;24.40;80.10
47174;DHT22;36730;49.036;9.094;2023-09-19T04:24:16;24.40;79.80
47174;DHT22;36730;49.036;9.094;2023-09-19T04:26:44;24.30;80.30
47174;DHT22;36730;49.036;9.094;2023-09-19T04:29:10;24.30;80.30
47174;DHT22;36730;49.036;9.094;2023-09-19T04:31:36;24.30;80.50
47174;DHT22;36730;49.036;9.094;2023-09-19T04:34:03;24.20;81.60
47174;DHT22;36730;49.036;9.094;2023-09-19T04:36:28;24.10;81.30
47174;DHT22;36730;49.036;9.094;2023-09-19T04:38:55;24.20;81.50
47174;DHT22;36730;49.036;9.094;2023-09-19T04:41:20;24.10;82.10
47174;DHT22;36730;49.036;9.094;2023-09-19T04:43:47;24.10;82.90
47174;DHT22;36730;49.036;9.094;2023-09-19T04:46:14;24.10;82.00
47174;DHT22;36730;49.036;9.094;2023-09-19T04:48:39;24.20;82.10
47174;DHT22;36730;49.036;9.094;2023-09-19T04:51:05;24.00;82.90
47174;DHT22;36730;49.036;9.094;2023-09-19T04:53:30;24.10;82.90
47174;DHT22;36730;49.036;9.094;2023-09-19T04:55:56;24.10;82.30
47174;DHT22;36730;49.036;9.094;2023-09-19T04:58:22;24.20;82.70
47174;DHT22;36730;49.036;9.094;2023-09-19T05:00:48;24.20;82.50
47174;DHT22;36730;49.036;9.094;2023-09-19T05:03:13;24.20;83.00
47174;DHT22;36730;49.036;9.094;2023-09-19T05:05:38;24.20;82.60
47174;DHT22;36730;49.036;9.094;2023-09-19T05:08:07;24.20;82.90
47174;DHT22;36730;49.036;9.094;2023-09-19T05:10:35;24.20;83.10
47174;DHT22;36730;49.036;9.094;2023-09-19T05:13:06;24.20;83.10
47174;DHT22;36730;49.036;9.094;2023-09-19T05:15:33;24.20;83.50
47174;DHT22;36730;49.036;9.094;2023-09-19T05:17:58;24.20;83.60
47174;DHT22;36730;49.036;9.094;2023-09-19T05:20:24;24.20;84.20
47174;DHT22;36730;49.036;9.094;2023-09-19T05:23:00;24.20;83.80
47174;DHT22;36730;49.036;9.094;2023-09-19T05:25:27;24.30;83.70
47174;DHT22;36730;49.036;9.094;2023-09-19T05:27:56;24.30;83.50
47174;DHT22;36730;49.036;9.094;2023-09-19T05:30:23;24.40;83.10
47174;DHT22;36730;49.036;9.094;2023-09-19T05:32:48;24.40;84.00
47174;DHT22;36730;49.036;9.094;2023-09-19T05:35:14;24.40;83.50
47174;DHT22;36730;49.036;9.094;2023-09-19T05:37:39;24.50;84.00
47174;DHT22;36730;49.036;9.094;2023-09-19T05:40:05;24.50;83.70
47174;DHT22;36730;49.036;9.094;2023-09-19T05:42:34;24.50;83.30
47174;DHT22;36730;49.036;9.094;2023-09-19T05:45:00;24.40;83.90
47174;DHT22;36730;49.036;9.094;2023-09-19T05:47:25;24.40;83.60
47174;DHT22;36730;49.036;9.094;2023-09-19T05:49:51;24.50;83.80
47174;DHT22;36730;49.036;9.094;2023-09-19T05:52:17;24.60;83.30
47174;DHT22;36730;49.036;9.094;2023-09-19T05:54:43;24.60;82.70
47174;DHT22;36730;49.036;9.094;2023-09-19T05:57:08;24.70;82.40
47174;DHT22;36730;49.036;9.094;2023-09-19T05:59:36;24.70;82.50
47174;DHT22;36730;49.036;9.094;2023-09-19T06:02:01;24.70;81.90
47174;DHT22;36730;49.036;9.094;2023-09-19T06:04:26;24.80;81.40
47174;DHT22;36730;49.036;9.094;2023-09-19T06:06:52;24.90;81.40
47174;DHT22;36730;49.036;9.094;2023-09-19T06:09:17;24.90;81.20
47174;DHT22;36730;49.036;9.094;2023-09-19T06:11:44;24.90;81.00
47174;DHT22;36730;49.036;9.094;2023-09-19T06:14:09;24.90;80.50
47174;DHT22;36730;49.036;9.094;2023-09-19T06:16:35;25.00;80.40
47174;DHT22;36730;49.036;9.094;2023-09-19T06:19:01;25.00;80.30
47174;DHT22;36730;49.036;9.094;2023-09-19T06:21:27;25.00;80.10
47174;DHT22;36730;49.036;9.094;2023-09-19T06:23:53;25.10;80.00
47174;DHT22;36730;49.036;9.094;2023-09-19T06:26:18;25.10;79.60
47174;DHT22;36730;49.036;9.094;2023-09-19T06:28:44;25.10;79.40
47174;DHT22;36730;49.036;9.094;2023-09-19T06:31:09;25.20;79.50
47174;DHT22;36730;49.036;9.094;2023-09-19T06:33:35;25.20;79.00
47174;DHT22;36730;49.036;9.094;2023-09-19T06:36:03;25.20;78.90
47174;DHT22;36730;49.036;9.094;2023-09-19T06:38:30;25.30;78.60
47174;DHT22;36730;49.036;9.094;2023-09-19T06:40:58;25.30;79.20
47174;DHT22;36730;49.036;9.094;2023-09-19T06:43:23;25.30;78.40
47174;DHT22;36730;49.036;9.094;2023-09-19T06:45:49;25.30;77.80
47174;DHT22;36730;49.036;9.094;2023-09-19T06:48:17;25.30;77.60
47174;DHT22;36730;49.036;9.094;2023-09-19T06:50:43;25.30;77.00
47174;DHT22;36730;49.036;9.094;2023-09-19T06:53:09;25.30;77.00
47174;DHT22;36730;49.036;9.094;2023-09-19T06:55:35;25.30;76.70
47174;DHT22;36730;49.036;9.094;2023-09-19T06:58:02;25.40;76.50
47174;DHT22;36730;49.036;9.094;2023-09-19T07:00:27;25.40;76.10
47174;DHT22;36730;49.036;9.094;2023-09-19T07:03:02;25.40;76.00
47174;DHT22;36730;49.036;9.094;2023-09-19T07:05:32;25.40;75.70
47174;DHT22;36730;49.036;9.094;2023-09-19T07:08:00;25.40;75.40
47174;DHT22;36730;49.036;9.094;2023-09-19T07:10:26;25.40;75.20
47174;DHT22;36730;49.036;9.094;2023-09-19T07:15:27;25.40;73.60
47174;DHT22;36730;49.036;9.094;2023-09-19T07:17:53;25.40;73.30
47174;DHT22;36730;49.036;9.094;2023-09-19T07:20:19;25.40;73.70
47174;DHT22;36730;49.036;9.094;2023-09-19T07:22:45;25.40;73.20
47174;DHT22;36730;49.036;9.094;2023-09-19T07:25:10;25.40;74.00
47174;DHT22;36730;49.036;9.094;2023-09-19T07:27:35;25.40;73.70
47174;DHT22;36730;49.036;9.094;2023-09-19T07:30:01;25.40;73.20
47174;DHT22;36730;49.036;9.094;2023-09-19T07:32:26;25.40;70.60
47174;DHT22;36730;49.036;9.094;2023-09-19T07:34:52;25.10;71.00
47174;DHT22;36730;49.036;9.094;2023-09-19T07:37:18;25.10;73.10
47174;DHT22;36730;49.036;9.094;2023-09-19T07:39:43;25.20;73.60
47174;DHT22;36730;49.036;9.094;2023-09-19T07:42:10;25.20;72.80
47174;DHT22;36730;49.036;9.094;2023-09-19T07:44:36;25.30;73.40
47174;DHT22;36730;49.036;9.094;2023-09-19T07:47:02;25.30;72.70
47174;DHT22;36730;49.036;9.094;2023-09-19T07:49:28;25.40;72.70
47174;DHT22;36730;49.036;9.094;2023-09-19T07:51:54;25.40;72.40
47174;DHT22;36730;49.036;9.094;2023-09-19T07:54:20;25.50;72.20
47174;DHT22;36730;49.036;9.094;2023-09-19T07:56:46;25.50;71.90
47174;DHT22;36730;49.036;9.094;2023-09-19T07:59:11;25.60;71.70
47174;DHT22;36730;49.036;9.094;2023-09-19T08:01:37;25.60;71.40
47174;DHT22;36730;49.036;9.094;2023-09-19T08:04:05;25.60;71.40
47174;DHT22;36730;49.036;9.094;2023-09-19T08:06:30;25.70;71.50
47174;DHT22;36730;49.036;9.094;2023-09-19T08:08:56;25.70;71.00
47174;DHT22;36730;49.036;9.094;2023-09-19T08:11:22;25.70;70.90
47174;DHT22;36730;49.036;9.094;2023-09-19T08:13:49;25.70;70.40
47174;DHT22;36730;49.036;9.094;2023-09-19T08:16:15;25.70;70.00
47174;DHT22;36730;49.036;9.094;2023-09-19T08:18:41;25.70;69.70
47174;DHT22;36730;49.036;9.094;2023-09-19T08:21:07;25.60;70.10
47174;DHT22;36730;49.036;9.094;2023-09-19T08:23:36;25.60;70.30
47174;DHT22;36730;49.036;9.094;2023-09-19T08:26:03;25.70;70.20
47174;DHT22;36730;49.036;9.094;2023-09-19T08:28:32;25.70;70.10
47174;DHT22;36730;49.036;9.094;2023-09-19T08:31:01;25.70;70.00
47174;DHT22;36730;49.036;9.094;2023-09-19T08:33:26;25.80;69.30
47174;DHT22;36730;49.036;9.094;2023-09-19T08:35:52;25.80;69.30
47174;DHT22;36730;49.036;9.094;2023-09-19T08:38:17;25.80;69.00
47174;DHT22;36730;49.036;9.094;2023-09-19T08:40:42;25.80;68.30
47174;DHT22;36730;49.036;9.094;2023-09-19T08:43:09;25.90;68.20
47174;DHT22;36730;49.036;9.094;2023-09-19T08:45:34;25.90;68.00
47174;DHT22;36730;49.036;9.094;2023-09-19T08:53:31;25.90;68.10
47174;DHT22;36730;49.036;9.094;2023-09-19T08:55:59;26.00;67.90
47174;DHT22;36730;49.036;9.094;2023-09-19T08:58:29;25.90;67.70
47174;DHT22;36730;49.036;9.094;2023-09-19T09:00:57;26.00;67.90
47174;DHT22;36730;49.036;9.094;2023-09-19T09:03:23;26.00;67.90
47174;DHT22;36730;49.036;9.094;2023-09-19T09:05:50;26.10;67.60
47174;DHT22;36730;49.036;9.094;2023-09-19T09:08:16;26.10;67.50
47174;DHT22;36730;49.036;9.094;2023-09-19T09:10:44;26.10;67.40
47174;DHT22;36730;49.036;9.094;2023-09-19T09:13:09;26.10;66.90
47174;DHT22;36730;49.036;9.094;2023-09-19T09:15:37;26.10;67.00
47174;DHT22;36730;49.036;9.094;2023-09-19T09:18:03;26.10;67.00
47174;DHT22;36730;49.036;9.094;2023-09-19T09:20:30;26.10;66.80
47174;DHT22;36730;49.036;9.094;2023-09-19T09:22:56;26.20;67.00
47174;DHT22;36730;49.036;9.094;2023-09-19T09:26:10;26.20;66.60
47174;DHT22;36730;49.036;9.094;2023-09-19T09:28:11;26.20;66.70
47174;DHT22;36730;49.036;9.094;2023-09-19T09:30:36;26.20;66.30
47174;DHT22;36730;49.036;9.094;2023-09-19T09:33:09;26.30;66.30
47174;DHT22;36730;49.036;9.094;2023-09-19T09:35:36;26.30;66.40
47174;DHT22;36730;49.036;9.094;2023-09-19T09:38:02;26.30;66.50
47174;DHT22;36730;49.036;9.094;2023-09-19T09:41:06;26.30;66.10
47174;DHT22;36730;49.036;9.094;2023-09-19T09:43:34;26.30;65.40
47174;DHT22;36730;49.036;9.094;2023-09-19T09:46:17;26.30;65.40
47174;DHT22;36730;49.036;9.094;2023-09-19T09:52:24;26.30;65.80
47174;DHT22;36730;49.036;9.094;2023-09-19T09:54:32;26.30;65.10
47174;DHT22;36730;49.036;9.094;2023-09-19T09:57:07;26.30;64.40
47174;DHT22;36730;49.036;9.094;2023-09-19T10:02:13;26.30;64.20
47174;DHT22;36730;49.036;9.094;2023-09-19T10:04:39;26.20;64.10
47174;DHT22;36730;49.036;9.094;2023-09-19T10:07:29;26.20;64.70
47174;DHT22;36730;49.036;9.094;2023-09-19T10:10:01;26.20;64.00
47174;DHT22;36730;49.036;9.094;2023-09-19T10:12:37;26.20;64.50
47174;DHT22;36730;49.036;9.094;2023-09-19T10:15:03;26.20;63.40
47174;DHT22;36730;49.036;9.094;2023-09-19T10:17:33;26.20;63.40
47174;DHT22;36730;49.036;9.094;2023-09-19T10:20:00;26.20;65.00
47174;DHT22;36730;49.036;9.094;2023-09-19T10:22:34;26.20;64.90
47174;DHT22;36730;49.036;9.094;2023-09-19T10:25:00;26.20;64.80
47174;DHT22;36730;49.036;9.094;2023-09-19T10:27:29;26.20;65.00
47174;DHT22;36730;49.036;9.094;2023-09-19T10:29:55;26.10;64.40
47174;DHT22;36730;49.036;9.094;2023-09-19T10:32:22;26.00;64.10
47174;DHT22;36730;49.036;9.094;2023-09-19T10:34:49;25.80;64.00
47174;DHT22;36730;49.036;9.094;2023-09-19T10:37:16;25.70;64.40
47174;DHT22;36730;49.036;9.094;2023-09-19T10:39:42;25.70;63.80
47174;DHT22;36730;49.036;9.094;2023-09-19T10:42:11;25.50;64.60
47174;DHT22;36730;49.036;9.094;2023-09-19T10:44:38;25.10;64.00
47174;DHT22;36730;49.036;9.094;2023-09-19T10:47:07;25.10;65.30
47174;DHT22;36730;49.036;9.094;2023-09-19T10:49:34;25.10;65.30
47174;DHT22;36730;49.036;9.094;2023-09-19T10:51:59;25.20;64.00
47174;DHT22;36730;49.036;9.094;2023-09-19T10:54:28;25.00;64.30
47174;DHT22;36730;49.036;9.094;2023-09-19T10:56:55;25.00;65.40
47174;DHT22;36730;49.036;9.094;2023-09-19T10:59:24;25.00;65.40
47174;DHT22;36730;49.036;9.094;2023-09-19T11:01:50;24.90;64.80
47174;DHT22;36730;49.036;9.094;2023-09-19T11:07:03;24.60;64.30
47174;DHT22;36730;49.036;9.094;2023-09-19T11:09:45;24.60;65.30
47174;DHT22;36730;49.036;9.094;2023-09-19T11:12:12;24.50;65.10
47174;DHT22;36730;49.036;9.094;2023-09-19T11:14:38;24.50;66.10
47174;DHT22;36730;49.036;9.094;2023-09-19T11:22:34;24.70;65.30
47174;DHT22;36730;49.036;9.094;2023-09-19T11:33:47;24.80;63.90
47174;DHT22;36730;49.036;9.094;2023-09-19T11:36:02;24.80;64.40
47174;DHT22;36730;49.036;9.094;2023-09-19T11:46:12;25.00;62.60
47174;DHT22;36730;49.036;9.094;2023-09-19T11:48:42;25.10;63.10
47174;DHT22;36730;49.036;9.094;2023-09-19T11:51:10;25.00;63.50
47174;DHT22;36730;49.036;9.094;2023-09-19T11:53:44;24.90;62.60
47174;DHT22;36730;49.036;9.094;2023-09-19T11:56:10;24.90;62.90
47174;DHT22;36730;49.036;9.094;2023-09-19T11:58:36;24.90;62.80
47174;DHT22;36730;49.036;9.094;2023-09-19T12:01:03;25.00;63.20
47174;DHT22;36730;49.036;9.094;2023-09-19T12:03:33;25.00;63.40
47174;DHT22;36730;49.036;9.094;2023-09-19T12:06:00;24.90;62.30
47174;DHT22;36730;49.036;9.094;2023-09-19T12:08:27;24.90;63.50
47174;DHT22;36730;49.036;9.094;2023-09-19T12:10:53;25.00;62.80
47174;DHT22;36730;49.036;9.094;2023-09-19T12:13:20;25.00;61.60
47174;DHT22;36730;49.036;9.094;2023-09-19T12:15:46;25.00;62.10
47174;DHT22;36730;49.036;9.094;2023-09-19T12:18:25;25.00;61.80
47174;DHT22;36730;49.036;9.094;2023-09-19T12:20:51;25.10;62.30
47174;DHT22;36730;49.036;9.094;2023-09-19T12:23:17;25.30;62.00
47174;DHT22;36730;49.036;9.094;2023-09-19T12:25:43;25.30;61.30
47174;DHT22;36730;49.036;9.094;2023-09-19T12:28:12;25.40;61.40
47174;DHT22;36730;49.036;9.094;2023-09-19T12:30:37;25.40;61.00
47174;DHT22;36730;49.036;9.094;2023-09-19T12:33:18;25.30;60.30
47174;DHT22;36730;49.036;9.094;2023-09-19T12:35:45;25.20;60.00
47174;DHT22;36730;49.036;9.094;2023-09-19T12:38:10;25.20;59.40
47174;DHT22;36730;49.036;9.094;2023-09-19T12:40:37;25.20;60.30
47174;DHT22;36730;49.036;9.094;2023-09-19T12:43:03;25.20;59.80
47174;DHT22;36730;49.036;9.094;2023-09-19T12:45:30;25.30;60.00
47174;DHT22;36730;49.036;9.094;2023-09-19T12:53:25;25.30;59.00
47174;DHT22;36730;49.036;9.094;2023-09-19T12:56:00;25.40;59.90
47174;DHT22;36730;49.036;9.094;2023-09-19T12:58:26;25.40;58.70
47174;DHT22;36730;49.036;9.094;2023-09-19T13:00:51;25.40;59.00
47174;DHT22;36730;49.036;9.094;2023-09-19T13:03:18;25.40;59.90
47174;DHT22;36730;49.036;9.094;2023-09-19T13:05:51;25.40;58.90
47174;DHT22;36730;49.036;9.094;2023-09-19T13:08:23;25.50;58.60
47174;DHT22;36730;49.036;9.094;2023-09-19T13:13:36;25.50;58.20
47174;DHT22;36730;49.036;9.094;2023-09-19T13:16:02;25.60;58.30
47174;DHT22;36730;49.036;9.094;2023-09-19T13:18:30;25.60;59.10
47174;DHT22;36730;49.036;9.094;2023-09-19T13:21:09;25.70;58.90
47174;DHT22;36730;49.036;9.094;2023-09-19T13:23:53;25.80;59.90
47174;DHT22;36730;49.036;9.094;2023-09-19T13:26:19;25.90;59.20
47174;DHT22;36730;49.036;9.094;2023-09-19T13:28:45;25.80;58.00
47174;DHT22;36730;49.036;9.094;2023-09-19T13:31:13;25.80;58.40
47174;DHT22;36730;49.036;9.094;2023-09-19T13:33:48;25.90;58.40
47174;DHT22;36730;49.036;9.094;2023-09-19T13:36:14;25.90;58.70
47174;DHT22;36730;49.036;9.094;2023-09-19T13:38:42;25.90;59.30
47174;DHT22;36730;49.036;9.094;2023-09-19T13:41:09;25.90;58.70
47174;DHT22;36730;49.036;9.094;2023-09-19T13:43:35;25.90;58.80
47174;DHT22;36730;49.036;9.094;2023-09-19T13:46:01;25.90;59.00
47174;DHT22;36730;49.036;9.094;2023-09-19T13:48:27;26.00;58.40
47174;DHT22;36730;49.036;9.094;2023-09-19T13:50:55;25.90;57.70
47174;DHT22;36730;49.036;9.094;2023-09-19T13:53:21;26.00;58.40
47174;DHT22;36730;49.036;9.094;2023-09-19T13:55:46;26.10;59.60
47174;DHT22;36730;49.036;9.094;2023-09-19T13:58:14;26.20;58.20
47174;DHT22;36730;49.036;9.094;2023-09-19T14:00:39;26.20;57.80
47174;DHT22;36730;49.036;9.094;2023-09-19T14:03:05;26.30;57.60
47174;DHT22;36730;49.036;9.094;2023-09-19T14:05:31;26.40;57.60
47174;DHT22;36730;49.036;9.094;2023-09-19T14:07:56;26.50;57.60
47174;DHT22;36730;49.036;9.094;2023-09-19T14:10:24;26.60;57.20
47174;DHT22;36730;49.036;9.094;2023-09-19T14:12:51;26.60;58.00
47174;DHT22;36730;49.036;9.094;2023-09-19T14:15:17;26.70;57.40
47174;DHT22;36730;49.036;9.094;2023-09-19T14:17:42;26.80;57.60
47174;DHT22;36730;49.036;9.094;2023-09-19T14:20:10;26.80;57.50
47174;DHT22;36730;49.036;9.094;2023-09-19T14:22:36;26.80;57.40
47174;DHT22;36730;49.036;9.094;2023-09-19T14:25:05;26.90;57.20
47174;DHT22;36730;49.036;9.094;2023-09-19T14:27:30;26.90;57.20
47174;DHT22;36730;49.036;9.094;2023-09-19T14:29:56;26.90;57.20
47174;DHT22;36730;49.036;9.094;2023-09-19T14:32:22;27.00;57.10
47174;DHT22;36730;49.036;9.094;2023-09-19T14:34:48;27.00;56.90
47174;DHT22;36730;49.036;9.094;2023-09-19T14:37:14;27.00;56.30
47174;DHT22;36730;49.036;9.094;2023-09-19T14:39:42;27.00;56.40
47174;DHT22;36730;49.036;9.094;2023-09-19T14:42:11;27.00;56.60
47174;DHT22;36730;49.036;9.094;2023-09-19T14:44:36;27.00;56.80
47174;DHT22;36730;49.036;9.094;2023-09-19T14:47:05;27.00;56.40
47174;DHT22;36730;49.036;9.094;2023-09-19T14:49:35;27.00;56.20
47174;DHT22;36730;49.036;9.094;2023-09-19T14:52:03;27.00;56.10
47174;DHT22;36730;49.036;9.094;2023-09-19T14:54:29;27.00;56.50
47174;DHT22;36730;49.036;9.094;2023-09-19T14:56:55;27.00;56.50
47174;DHT22;36730;49.036;9.094;2023-09-19T14:59:32;27.10;56.60
47174;DHT22;36730;49.036;9.094;2023-09-19T15:01:58;27.10;56.60
47174;DHT22;36730;49.036;9.094;2023-09-19T15:04:24;27.20;56.70
47174;DHT22;36730;49.036;9.094;2023-09-19T15:06:49;27.20;56.60
47174;DHT22;36730;49.036;9.094;2023-09-19T15:09:16;27.10;56.50
47174;DHT22;36730;49.036;9.094;2023-09-19T15:11:44;27.20;56.40
47174;DHT22;36730;49.036;9.094;2023-09-19T15:14:09;27.20;55.30
47174;DHT22;36730;49.036;9.094;2023-09-19T15:16:35;27.20;55.60
47174;DHT22;36730;49.036;9.094;2023-09-19T15:19:01;27.20;57.20
47174;DHT22;36730;49.036;9.094;2023-09-19T15:21:26;27.20;56.10
47174;DHT22;36730;49.036;9.094;2023-09-19T15:23:52;27.20;56.20
47174;DHT22;36730;49.036;9.094;2023-09-19T15:26:17;27.20;56.10
47174;DHT22;36730;49.036;9.094;2023-09-19T15:28:45;27.20;55.10
47174;DHT22;36730;49.036;9.094;2023-09-19T15:31:11;27.10;55.40
47174;DHT22;36730;49.036;9.094;2023-09-19T15:33:37;27.10;55.90
47174;DHT22;36730;49.036;9.094;2023-09-19T15:36:06;27.20;55.50
47174;DHT22;36730;49.036;9.094;2023-09-19T15:38:50;27.20;54.70
47174;DHT22;36730;49.036;9.094;2023-09-19T15:41:21;27.10;54.80
47174;DHT22;36730;49.036;9.094;2023-09-19T15:43:47;27.10;55.50
47174;DHT22;36730;49.036;9.094;2023-09-19T15:46:12;27.10;55.10
47174;DHT22;36730;49.036;9.094;2023-09-19T15:48:40;27.10;55.60
47174;DHT22;36730;49.036;9.094;2023-09-19T15:51:06;27.10;54.90
47174;DHT22;36730;49.036;9.094;2023-09-19T15:53:44;27.10;54.70
47174;DHT22;36730;49.036;9.094;2023-09-19T15:56:10;27.10;54.90
47174;DHT22;36730;49.036;9.094;2023-09-19T15:58:37;27.10;54.80
47174;DHT22;36730;49.036;9.094;2023-09-19T16:01:07;27.10;55.40
47174;DHT22;36730;49.036;9.094;2023-09-19T16:03:36;27.10;55.20
47174;DHT22;36730;49.036;9.094;2023-09-19T16:06:07;27.10;55.30
47174;DHT22;36730;49.036;9.094;2023-09-19T16:08:33;27.10;55.40
47174;DHT22;36730;49.036;9.094;2023-09-19T16:11:00;27.10;55.40
47174;DHT22;36730;49.036;9.094;2023-09-19T16:13:25;27.10;55.00
47174;DHT22;36730;49.036;9.094;2023-09-19T16:15:52;27.10;55.40
47174;DHT22;36730;49.036;9.094;2023-09-19T16:18:17;27.10;55.90
47174;DHT22;36730;49.036;9.094;2023-09-19T16:20:43;27.00;56.00
47174;DHT22;36730;49.036;9.094;2023-09-19T16:23:08;27.10;55.60
47174;DHT22;36730;49.036;9.094;2023-09-19T16:25:34;27.00;56.00
47174;DHT22;36730;49.036;9.094;2023-09-19T16:27:59;27.10;55.70